Time;durP1;ratioP1;P1;durP2;ratioP2;P2;SDS_P1;SDS_P2;PMS_P1;PMS_P2;Temp;Humidity;BMP_temperature;BMP_pressure;BME280_temperature;BME280_humidity;BME280_pressure;Samples;Min_cycle;Max_cycle;Signal;HPM_P1;HPM_P2
2022/09/15 00:00:46;;;;;;;43.13;33.08;;;;;;;15.22;95.83;98690.81;5009442;28;20050;-66
2022/09/15 00:03:13;;;;;;;47.38;35.95;;;;;;;15.25;96.17;98684.41;5009344;28;20104;-66
2022/09/15 00:05:40;;;;;;;45.15;35.65;;;;;;;15.26;95.96;98683.47;4989945;28;20437;-66
2022/09/15 00:08:07;;;;;;;52.70;38.30;;;;;;;15.29;95.62;98687.66;4989175;28;20137;-67
2022/09/15 00:10:34;;;;;;;47.40;37.35;;;;;;;15.28;96.18;98689.44;4989932;28;20050;-66
2022/09/15 00:13:01;;;;;;;44.10;33.80;;;;;;;15.28;95.89;98688.63;4989701;28;20516;-66
2022/09/15 00:15:27;;;;;;;46.97;37.08;;;;;;;15.30;95.51;98689.34;4990001;28;20054;-67
2022/09/15 00:17:54;;;;;;;39.65;32.22;;;;;;;15.28;95.32;98684.13;5009643;28;20054;-67
2022/09/15 00:20:21;;;;;;;47.08;35.88;;;;;;;15.30;95.18;98682.19;5010046;28;20589;-66
2022/09/15 00:22:48;;;;;;;37.40;30.17;;;;;;;15.33;95.27;98683.75;5010001;28;20058;-66
2022/09/15 00:25:17;;;;;;;54.90;39.45;;;;;;;15.30;95.08;98676.88;5009701;28;20049;-65
2022/09/15 00:27:43;;;;;;;46.75;37.53;;;;;;;15.25;95.10;98679.09;5009345;28;20057;-65
2022/09/15 00:30:10;;;;;;;50.13;39.15;;;;;;;15.23;95.22;98679.25;5009699;28;20100;-65
2022/09/15 00:32:37;;;;;;;49.92;39.10;;;;;;;15.22;95.09;98690.00;5009312;28;20085;-66
2022/09/15 00:35:04;;;;;;;44.03;37.15;;;;;;;15.22;94.92;98693.47;5009746;28;20050;-67
2022/09/15 00:37:31;;;;;;;46.83;35.95;;;;;;;15.24;94.77;98686.22;5010429;28;20060;-67
2022/09/15 00:39:57;;;;;;;43.90;34.67;;;;;;;15.19;95.21;98684.97;5009369;28;20060;-67
2022/09/15 00:42:25;;;;;;;44.67;32.25;;;;;;;15.16;95.09;98687.84;5013521;28;20045;-66
2022/09/15 00:44:55;;;;;;;36.45;30.88;;;;;;;15.21;95.24;98688.28;5029222;28;20049;-66
2022/09/15 00:47:25;;;;;;;35.33;27.33;;;;;;;15.19;94.72;98692.91;5029240;28;20053;-66
2022/09/15 00:49:55;;;;;;;48.22;38.10;;;;;;;15.19;94.78;98688.44;5015201;28;20045;-67
2022/09/15 00:52:28;;;;;;;40.13;32.00;;;;;;;15.15;94.24;98692.31;5009799;28;20053;-67
2022/09/15 00:55:00;;;;;;;36.47;30.02;;;;;;;15.12;95.17;98694.41;5009797;28;20060;-66
2022/09/15 00:57:32;;;;;;;44.38;30.42;;;;;;;15.15;95.64;98696.81;5009329;28;20046;-66
2022/09/15 01:00:01;;;;;;;42.13;33.60;;;;;;;15.15;95.34;98694.16;5008887;28;20042;-67
2022/09/15 01:02:31;;;;;;;35.75;30.08;;;;;;;15.16;96.09;98703.78;5008851;28;20048;-67
2022/09/15 01:05:00;;;;;;;43.33;34.00;;;;;;;15.14;95.28;98690.66;5008669;28;20084;-66
2022/09/15 01:07:32;;;;;;;47.63;36.85;;;;;;;15.12;94.94;98695.25;5008325;28;20038;-66
2022/09/15 01:10:01;;;;;;;32.28;26.95;;;;;;;15.13;96.04;98696.91;5008544;28;20054;-66
2022/09/15 01:12:29;;;;;;;40.75;33.63;;;;;;;15.16;95.39;98698.47;5008553;28;20046;-66
2022/09/15 01:14:55;;;;;;;46.10;35.78;;;;;;;15.08;95.51;98693.81;5008277;28;20052;-67
2022/09/15 01:17:33;;;;;;;39.10;29.73;;;;;;;15.09;96.04;98692.00;5008410;28;20056;-66
2022/09/15 01:20:37;;;;;;;52.17;39.03;;;;;;;15.12;95.27;98687.28;5013359;28;20548;-68
2022/09/15 01:23:26;;;;;;;40.45;32.47;;;;;;;15.08;95.35;98688.50;5014913;28;20057;-66
2022/09/15 01:26:36;;;;;;;41.75;31.33;;;;;;;15.13;95.12;98685.47;5014975;28;20065;-67
2022/09/15 01:29:38;;;;;;;49.38;39.42;;;;;;;15.10;95.08;98691.88;4977205;28;20061;-67
2022/09/15 01:35:02;;;;;;;43.75;32.83;;;;;;;15.09;94.97;98690.22;5015081;28;20089;-67
2022/09/15 01:37:32;;;;;;;43.78;34.80;;;;;;;15.07;95.55;98694.81;5014891;28;20523;-65
2022/09/15 01:40:01;;;;;;;45.17;37.15;;;;;;;15.05;95.53;98688.78;5014932;28;20041;-67
2022/09/15 01:42:32;;;;;;;50.55;39.58;;;;;;;15.05;95.92;98691.44;5014390;28;20057;-67
2022/09/15 01:45:06;;;;;;;50.17;37.05;;;;;;;15.07;95.98;98684.19;5014788;28;20045;-68
2022/09/15 01:47:35;;;;;;;47.67;36.53;;;;;;;15.03;96.45;98680.94;5014466;28;20049;-67
2022/09/15 01:50:09;;;;;;;38.38;32.17;;;;;;;15.04;97.16;98684.47;5014552;28;20417;-67
2022/09/15 01:52:37;;;;;;;45.45;34.90;;;;;;;15.01;96.54;98687.34;5014542;28;20541;-67
2022/09/15 01:55:09;;;;;;;44.28;36.60;;;;;;;15.02;97.04;98684.56;5014751;28;20428;-66
2022/09/15 01:57:36;;;;;;;47.53;38.63;;;;;;;14.95;97.05;98688.72;5015006;28;20046;-66
2022/09/15 02:00:05;;;;;;;57.00;43.13;;;;;;;14.91;96.78;98692.59;5014485;28;20048;-67
2022/09/15 02:02:36;;;;;;;49.35;36.80;;;;;;;14.88;96.71;98690.22;5014656;28;20428;-65
2022/09/15 02:05:08;;;;;;;51.72;38.55;;;;;;;14.87;96.87;98682.41;5014235;28;20065;-66
2022/09/15 02:07:43;;;;;;;50.90;39.33;;;;;;;14.88;96.65;98686.72;5014358;28;20057;-66
2022/09/15 02:10:12;;;;;;;;;;;;;;;14.87;96.86;98687.69;5014986;28;20041;-66
2022/09/15 02:12:47;;;;;;;42.25;33.67;;;;;;;14.86;96.95;98691.31;5014452;28;19928;-67
2022/09/15 02:15:21;;;;;;;44.70;34.03;;;;;;;14.86;96.89;98694.78;5014169;28;20080;-68
2022/09/15 02:17:53;;;;;;;48.90;35.60;;;;;;;14.74;97.48;98688.75;5026193;28;20049;-68
2022/09/15 02:20:25;;;;;;;46.20;34.78;;;;;;;14.79;97.38;98694.50;5034274;28;20041;-67
2022/09/15 02:22:56;;;;;;;48.45;37.83;;;;;;;14.79;97.34;98691.84;5034504;28;20060;-67
2022/09/15 02:25:27;;;;;;;47.97;33.50;;;;;;;14.76;97.17;98689.41;5034158;28;20049;-68
2022/09/15 02:27:58;;;;;;;45.53;33.30;;;;;;;14.72;97.20;98695.16;5033939;28;20053;-67
2022/09/15 02:30:30;;;;;;;43.05;32.85;;;;;;;14.74;97.43;98702.00;5032542;28;20136;-67
2022/09/15 02:33:01;;;;;;;48.25;35.50;;;;;;;14.77;97.14;98703.56;5031104;28;20088;-66
2022/09/15 02:35:32;;;;;;;39.72;30.73;;;;;;;14.78;96.76;98697.25;5018031;28;20117;-67
2022/09/15 02:38:00;;;;;;;41.95;30.73;;;;;;;14.77;96.83;98693.78;5010916;28;20108;-68
2022/09/15 02:40:29;;;;;;;46.55;33.13;;;;;;;14.79;96.37;98696.28;5010671;28;20038;-67
2022/09/15 02:43:00;;;;;;;34.80;28.27;;;;;;;14.81;96.00;98695.19;5011147;28;20072;-66
2022/09/15 02:45:30;;;;;;;30.70;26.30;;;;;;;14.85;95.11;98697.59;5011076;28;20058;-67
2022/09/15 02:47:56;;;;;;;38.17;28.95;;;;;;;14.79;94.57;98699.81;5012069;28;20050;-67
2022/09/15 02:50:25;;;;;;;41.33;31.35;;;;;;;14.79;94.32;98702.47;5012150;28;20073;-67
2022/09/15 02:52:52;;;;;;;29.00;23.95;;;;;;;14.72;94.03;98692.50;5011103;28;20096;-66
2022/09/15 02:55:18;;;;;;;35.03;24.50;;;;;;;14.69;93.87;98693.56;5011484;28;20050;-67
2022/09/15 02:57:45;;;;;;;29.63;22.27;;;;;;;14.63;94.14;98698.56;5011330;28;20050;-66
2022/09/15 03:00:13;;;;;;;37.03;24.83;;;;;;;14.59;94.43;98698.81;5011690;28;20052;-67
2022/09/15 03:02:44;;;;;;;33.90;26.33;;;;;;;14.52;94.96;98689.66;5011893;28;20058;-67
2022/09/15 03:05:13;;;;;;;39.30;26.67;;;;;;;14.45;95.89;98692.91;5011619;28;20050;-67
2022/09/15 03:07:40;;;;;;;37.38;26.50;;;;;;;14.42;96.08;98693.19;5010975;28;20057;-67
2022/09/15 03:10:08;;;;;;;32.00;25.00;;;;;;;14.36;96.26;98691.88;5011187;28;20060;-67
2022/09/15 03:12:37;;;;;;;37.40;26.02;;;;;;;14.32;96.76;98691.31;5011435;28;20050;-67
2022/09/15 03:15:05;;;;;;;38.88;28.23;;;;;;;14.31;97.04;98689.59;5010844;28;20050;-67
2022/09/15 03:17:34;;;;;;;48.33;33.83;;;;;;;14.30;97.21;98690.59;5010302;28;20058;-67
2022/09/15 03:20:03;;;;;;;46.38;31.35;;;;;;;14.24;97.76;98693.72;5010107;28;20050;-66
2022/09/15 03:22:29;;;;;;;43.08;27.92;;;;;;;14.19;98.28;98698.56;5010404;28;20050;-66
2022/09/15 03:24:56;;;;;;;45.95;32.15;;;;;;;14.20;98.97;98704.69;5010316;28;20046;-66
2022/09/15 03:27:23;;;;;;;44.45;30.38;;;;;;;14.18;98.21;98703.03;5010063;28;20054;-66
2022/09/15 03:29:50;;;;;;;39.13;30.48;;;;;;;14.13;98.53;98697.25;5010190;28;20052;-66
2022/09/15 03:32:16;;;;;;;46.08;31.70;;;;;;;14.12;98.31;98702.69;5010213;28;20144;-66
2022/09/15 03:34:43;;;;;;;50.30;34.92;;;;;;;14.11;98.39;98706.31;5010098;28;20144;-66
2022/09/15 03:37:11;;;;;;;64.43;37.35;;;;;;;14.08;98.49;98709.22;5009772;28;20049;-67
2022/09/15 03:39:38;;;;;;;54.63;35.40;;;;;;;14.04;99.15;98705.94;5009892;28;20042;-67
2022/09/15 03:42:05;;;;;;;55.67;35.53;;;;;;;14.05;99.21;98707.63;5008928;28;20238;-67
2022/09/15 03:44:31;;;;;;;43.47;31.90;;;;;;;14.01;99.01;98706.22;5009693;28;20513;-68
2022/09/15 03:46:58;;;;;;;42.10;28.15;;;;;;;14.00;98.37;98708.97;5009362;28;20061;-67
2022/09/15 03:49:25;;;;;;;53.65;33.17;;;;;;;13.98;98.28;98718.84;5009732;28;20092;-67
2022/09/15 03:51:51;;;;;;;56.25;34.08;;;;;;;13.92;98.77;98722.84;5009893;28;20818;-67
2022/09/15 03:54:19;;;;;;;40.35;29.00;;;;;;;13.91;99.48;98726.47;5009613;28;20054;-67
2022/09/15 03:56:47;;;;;;;55.22;35.17;;;;;;;13.85;99.16;98717.19;5009332;28;20054;-67
2022/09/15 03:59:17;;;;;;;49.20;33.72;;;;;;;13.77;98.95;98719.59;5009480;28;20100;-67
2022/09/15 04:01:44;;;;;;;54.70;32.50;;;;;;;13.68;99.90;98718.53;5009640;28;20107;-67
2022/09/15 04:04:11;;;;;;;52.83;33.20;;;;;;;13.66;99.86;98719.59;5009801;28;20054;-68
2022/09/15 04:06:37;;;;;;;44.72;30.33;;;;;;;13.65;100.00;98715.28;5009567;28;20065;-67
2022/09/15 04:09:04;;;;;;;41.03;29.48;;;;;;;13.64;99.42;98719.75;5009689;28;20046;-67
2022/09/15 04:11:32;;;;;;;57.75;35.33;;;;;;;13.65;99.49;98713.47;5009738;28;20061;-67
2022/09/15 04:14:00;;;;;;;39.40;28.80;;;;;;;13.64;99.60;98706.50;5009354;28;20420;-67
2022/09/15 04:16:27;;;;;;;54.17;34.72;;;;;;;13.62;98.90;98707.59;5022811;28;20060;-67
2022/09/15 04:18:54;;;;;;;44.25;31.88;;;;;;;13.56;100.00;98714.22;5029085;28;20045;-66
2022/09/15 04:21:23;;;;;;;39.20;28.75;;;;;;;13.58;100.00;98714.06;5029250;28;20099;-67
2022/09/15 04:23:51;;;;;;;40.78;27.88;;;;;;;13.56;99.09;98714.22;5029001;28;20054;-67
2022/09/15 04:26:22;;;;;;;39.65;26.95;;;;;;;13.49;98.79;98707.72;5028705;28;20684;-67
2022/09/15 04:28:50;;;;;;;38.00;26.13;;;;;;;13.47;99.47;98707.81;5027292;28;20056;-66
2022/09/15 04:31:18;;;;;;;39.83;27.90;;;;;;;13.39;99.33;98714.66;5028977;28;20132;-66
2022/09/15 04:33:45;;;;;;;42.03;28.27;;;;;;;13.38;99.32;98711.19;5028598;28;20053;-66
2022/09/15 04:36:13;;;;;;;37.05;26.35;;;;;;;13.37;99.22;98709.50;5028860;28;20062;-66
2022/09/15 04:38:40;;;;;;;36.47;24.38;;;;;;;13.37;98.64;98703.38;5029091;28;20057;-67
2022/09/15 04:41:06;;;;;;;33.33;24.20;;;;;;;13.37;98.80;98698.94;5025889;28;20513;-66
2022/09/15 04:43:33;;;;;;;33.22;22.40;;;;;;;13.40;99.08;98709.25;5008906;28;20054;-66
2022/09/15 04:46:01;;;;;;;49.17;28.63;;;;;;;13.44;98.33;98699.28;5009161;28;20060;-66
2022/09/15 04:48:28;;;;;;;34.58;22.33;;;;;;;13.42;99.40;98701.22;5009105;28;20053;-66
2022/09/15 04:51:01;;;;;;;41.75;25.42;;;;;;;13.44;99.44;98709.88;5009127;28;20046;-66
2022/09/15 04:53:27;;;;;;;47.72;28.77;;;;;;;13.37;98.97;98703.38;5010069;28;20081;-68
2022/09/15 04:56:01;;;;;;;39.60;26.00;;;;;;;13.39;99.54;98709.38;5009849;28;20042;-67
2022/09/15 04:58:28;;;;;;;32.13;23.02;;;;;;;13.40;99.67;98711.91;5010364;28;20050;-65
2022/09/15 05:00:54;;;;;;;50.33;27.13;;;;;;;13.39;99.91;98704.94;5009345;28;20435;-67
2022/09/15 05:03:22;;;;;;;32.70;23.02;;;;;;;13.39;100.00;98699.66;5009233;28;20050;-67
2022/09/15 05:05:48;;;;;;;35.47;23.00;;;;;;;13.43;100.00;98700.25;5009362;28;20064;-69
2022/09/15 05:08:15;;;;;;;48.10;26.58;;;;;;;13.45;99.15;98715.03;5009529;28;20050;-65
2022/09/15 05:10:41;;;;;;;36.03;24.98;;;;;;;13.45;100.00;98712.41;5009520;28;20062;-66
2022/09/15 05:13:08;;;;;;;33.15;23.70;;;;;;;13.49;100.00;98711.19;5009711;28;20050;-66
2022/09/15 05:15:35;;;;;;;36.17;21.60;;;;;;;13.50;100.00;98709.38;5009512;28;20494;-66
2022/09/15 05:18:01;;;;;;;36.05;24.85;;;;;;;13.52;100.00;98715.41;5010038;28;20489;-66
2022/09/15 05:20:29;;;;;;;42.83;26.40;;;;;;;13.60;99.44;98720.09;5008827;28;20045;-67
2022/09/15 05:22:56;;;;;;;39.60;26.25;;;;;;;13.60;99.67;98720.94;5009382;28;20042;-66
2022/09/15 05:25:22;;;;;;;36.33;24.08;;;;;;;13.60;100.00;98720.94;5009760;28;20054;-67
2022/09/15 05:27:49;;;;;;;45.83;27.83;;;;;;;13.62;99.85;98724.31;5010281;28;20049;-67
2022/09/15 05:30:16;;;;;;;42.05;26.83;;;;;;;13.66;100.00;98716.97;5009600;28;20188;-66
2022/09/15 05:32:42;;;;;;;40.45;27.58;;;;;;;13.70;100.00;98727.19;5009252;28;20081;-66
2022/09/15 05:35:09;;;;;;;41.03;26.25;;;;;;;13.67;99.96;98732.72;5009712;28;20068;-67
2022/09/15 05:37:37;;;;;;;29.10;20.02;;;;;;;13.70;100.00;98729.00;5009338;28;20054;-66
2022/09/15 05:40:04;;;;;;;32.05;22.02;;;;;;;13.65;100.00;98731.19;5008234;28;20061;-66
2022/09/15 05:42:31;;;;;;;40.53;26.95;;;;;;;13.71;100.00;98728.91;5007993;28;20054;-67
2022/09/15 05:44:58;;;;;;;27.48;20.52;;;;;;;13.67;100.00;98734.56;5008481;28;20046;-66
2022/09/15 05:47:24;;;;;;;32.63;21.52;;;;;;;13.76;100.00;98731.19;5008153;28;20097;-67
2022/09/15 05:49:53;;;;;;;30.17;21.98;;;;;;;13.81;99.87;98742.25;5008054;28;20050;-67
2022/09/15 05:52:20;;;;;;;31.42;21.33;;;;;;;13.87;99.33;98739.09;5008230;28;20053;-66
2022/09/15 05:54:48;;;;;;;43.20;26.27;;;;;;;13.92;99.07;98744.88;5008181;28;20061;-66
2022/09/15 05:57:14;;;;;;;29.55;21.67;;;;;;;13.98;99.09;98748.00;5008050;28;20060;-66
2022/09/15 05:59:42;;;;;;;35.88;23.42;;;;;;;13.99;98.44;98747.88;5007794;28;20042;-67
2022/09/15 06:02:09;;;;;;;33.33;21.15;;;;;;;14.03;98.53;98749.34;5008235;28;20050;-66
2022/09/15 06:04:36;;;;;;;40.00;25.60;;;;;;;14.04;98.84;98751.00;5008029;28;20046;-66
2022/09/15 06:07:03;;;;;;;33.70;21.80;;;;;;;14.07;98.56;98757.88;5010411;28;20046;-67
2022/09/15 06:09:29;;;;;;;29.73;21.05;;;;;;;14.09;98.24;98758.59;5011680;28;20648;-66
2022/09/15 06:11:57;;;;;;;30.67;22.27;;;;;;;14.13;98.29;98762.69;5011769;28;20056;-66
2022/09/15 06:14:24;;;;;;;32.35;22.05;;;;;;;14.12;98.64;98763.63;5012119;28;20054;-68
2022/09/15 06:16:50;;;;;;;38.53;24.13;;;;;;;14.18;98.15;98763.16;5014813;28;20049;-65
2022/09/15 06:19:17;;;;;;;33.97;22.98;;;;;;;14.24;97.74;98757.34;5011959;28;20057;-67
2022/09/15 06:21:43;;;;;;;42.25;26.85;;;;;;;14.26;97.42;98771.31;5011914;28;20054;-67
2022/09/15 06:24:11;;;;;;;34.65;23.52;;;;;;;14.32;97.51;98769.97;5011831;28;20060;-68
2022/09/15 06:26:38;;;;;;;33.30;22.42;;;;;;;14.30;97.17;98770.13;5011272;28;20061;-67
2022/09/15 06:29:06;;;;;;;33.03;24.02;;;;;;;14.33;97.09;98766.38;5014178;28;20054;-65
2022/09/15 06:31:34;;;;;;;38.13;24.65;;;;;;;14.34;97.42;98758.28;5011065;28;20521;-66
2022/09/15 06:34:02;;;;;;;36.85;24.17;;;;;;;14.41;97.21;98763.09;5011404;28;20075;-66
2022/09/15 06:36:30;;;;;;;33.42;21.80;;;;;;;14.43;97.07;98766.47;5011088;28;20100;-66
2022/09/15 06:38:58;;;;;;;33.03;21.17;;;;;;;14.46;96.91;98772.34;5011465;28;20140;-66
2022/09/15 06:41:27;;;;;;;32.83;21.77;;;;;;;14.52;96.53;98776.31;5021836;28;20134;-66
2022/09/15 06:43:55;;;;;;;42.42;25.85;;;;;;;14.54;96.93;98777.06;5013153;28;20066;-67
2022/09/15 06:46:25;;;;;;;29.92;22.25;;;;;;;14.63;96.37;98784.28;5012098;28;20053;-67
2022/09/15 06:48:52;;;;;;;35.55;20.42;;;;;;;14.68;95.79;98779.44;5011585;28;20050;-67
2022/09/15 06:51:21;;;;;;;29.95;19.90;;;;;;;14.75;94.46;98782.44;5012225;28;20104;-67
2022/09/15 06:53:48;;;;;;;30.33;21.27;;;;;;;14.79;94.17;98789.16;5011377;28;20054;-67
2022/09/15 06:56:16;;;;;;;30.02;21.50;;;;;;;14.87;93.81;98791.19;5010951;28;20054;-67
2022/09/15 06:58:44;;;;;;;40.58;23.90;;;;;;;14.94;93.51;98784.38;5010862;28;20046;-67
2022/09/15 07:01:12;;;;;;;29.33;21.48;;;;;;;15.02;93.18;98788.09;5010751;28;20697;-67
2022/09/15 07:03:42;;;;;;;32.67;20.55;;;;;;;15.12;92.09;98797.94;5010549;28;20050;-66
2022/09/15 07:06:10;;;;;;;26.67;17.88;;;;;;;15.10;91.74;98797.22;5010172;28;20065;-67
2022/09/15 07:08:38;;;;;;;37.92;25.05;;;;;;;15.18;91.15;98798.25;5010484;28;20108;-67
2022/09/15 07:11:05;;;;;;;38.88;27.15;;;;;;;15.19;90.65;98807.91;5010859;28;20062;-66
2022/09/15 07:13:31;;;;;;;27.05;20.05;;;;;;;15.26;89.84;98808.25;5010698;28;20054;-66
2022/09/15 07:15:59;;;;;;;29.40;20.98;;;;;;;15.28;89.15;98808.09;5010166;28;20501;-66
2022/09/15 07:18:27;;;;;;;29.83;23.88;;;;;;;15.30;89.84;98808.81;5010213;28;20064;-66
2022/09/15 07:20:58;;;;;;;35.20;24.17;;;;;;;15.28;89.67;98808.94;5010680;28;20046;-66
2022/09/15 07:23:25;;;;;;;33.45;21.83;;;;;;;15.30;89.24;98804.34;5010419;28;20410;-66
2022/09/15 07:25:52;;;;;;;28.75;20.98;;;;;;;15.35;89.50;98811.94;5010146;28;20057;-67
2022/09/15 07:28:18;;;;;;;28.48;21.95;;;;;;;15.37;89.15;98807.34;5010030;28;20056;-66
2022/09/15 07:30:45;;;;;;;33.13;22.85;;;;;;;15.39;89.20;98802.75;5010195;28;20057;-68
2022/09/15 07:33:13;;;;;;;31.05;22.52;;;;;;;15.40;89.09;98807.06;5009890;28;20485;-67
2022/09/15 07:35:41;;;;;;;30.33;23.27;;;;;;;15.38;88.92;98806.34;5010664;28;20058;-67
2022/09/15 07:38:10;;;;;;;36.30;23.77;;;;;;;15.41;88.67;98812.25;5009905;28;20137;-68
2022/09/15 07:40:37;;;;;;;28.92;21.20;;;;;;;15.43;89.22;98809.47;5009774;28;20115;-68
2022/09/15 07:43:03;;;;;;;31.10;21.85;;;;;;;15.49;88.91;98819.56;5009738;28;20051;-68
2022/09/15 07:45:31;;;;;;;29.00;21.15;;;;;;;15.57;88.84;98826.88;5010116;28;20053;-67
2022/09/15 07:47:57;;;;;;;32.28;21.60;;;;;;;15.61;88.19;98828.31;5010102;28;20054;-67
2022/09/15 07:50:24;;;;;;;29.45;22.98;;;;;;;15.64;87.19;98836.84;5009625;28;20413;-66
2022/09/15 07:52:50;;;;;;;30.77;23.00;;;;;;;15.65;86.85;98827.94;5010066;28;20064;-67
2022/09/15 07:55:18;;;;;;;36.15;23.83;;;;;;;15.70;87.02;98837.34;5010012;28;20505;-66
2022/09/15 07:57:45;;;;;;;31.98;22.65;;;;;;;15.74;87.15;98833.44;5009726;28;20068;-66
2022/09/15 08:00:13;;;;;;;38.90;24.33;;;;;;;15.83;86.35;98840.66;5010103;28;20072;-66
2022/09/15 08:02:40;;;;;;;35.97;25.33;;;;;;;15.98;86.14;98839.31;5009804;28;20061;-67
2022/09/15 08:05:07;;;;;;;31.00;24.95;;;;;;;16.16;85.25;98838.69;5009555;28;20058;-67
2022/09/15 08:07:34;;;;;;;31.70;24.20;;;;;;;16.28;84.75;98835.78;5009416;28;20046;-68
2022/09/15 08:10:00;;;;;;;34.88;25.85;;;;;;;16.36;84.05;98837.75;5009954;28;20053;-68
2022/09/15 08:12:29;;;;;;;33.90;23.95;;;;;;;16.39;84.45;98839.31;5009477;28;20049;-66
2022/09/15 08:14:56;;;;;;;31.40;23.73;;;;;;;16.42;83.24;98845.22;5009485;28;20050;-68
2022/09/15 08:17:22;;;;;;;30.45;23.23;;;;;;;16.42;82.62;98849.69;5009226;28;20057;-67
2022/09/15 08:19:49;;;;;;;28.27;22.50;;;;;;;16.44;82.52;98850.38;5009482;28;20575;-66
2022/09/15 08:22:15;;;;;;;28.20;22.15;;;;;;;16.57;82.15;98850.16;5011783;28;20046;-67
2022/09/15 08:24:42;;;;;;;40.00;26.75;;;;;;;16.60;82.06;98855.19;5012084;28;20054;-66
2022/09/15 08:27:09;;;;;;;36.83;25.48;;;;;;;16.63;81.87;98854.91;5009509;28;20468;-66
2022/09/15 08:29:37;;;;;;;27.45;22.08;;;;;;;16.68;81.14;98861.50;5008674;28;20898;-66
2022/09/15 08:32:04;;;;;;;27.65;18.85;;;;;;;16.83;80.96;98863.81;5009988;28;20053;-66
2022/09/15 08:34:31;;;;;;;29.98;21.08;;;;;;;16.88;80.57;98866.88;5011822;28;20054;-68
2022/09/15 08:36:57;;;;;;;32.38;22.63;;;;;;;16.77;81.32;98862.50;5013746;28;20049;-66
2022/09/15 08:39:24;;;;;;;29.65;23.80;;;;;;;16.75;80.64;98872.44;5031503;28;20059;-66
2022/09/15 08:41:53;;;;;;;32.13;22.95;;;;;;;16.74;80.83;98876.09;5032240;28;20048;-66
2022/09/15 08:44:34;;;;;;;27.67;22.95;;;;;;;16.68;80.70;98877.47;5032005;28;20144;-69
2022/09/15 08:47:05;;;;;;;32.83;23.30;;;;;;;16.77;80.93;98872.31;5030340;28;20049;-66
2022/09/15 08:49:38;;;;;;;27.98;21.40;;;;;;;16.85;80.94;98883.97;5018663;28;20054;-67
2022/09/15 08:52:07;;;;;;;28.65;22.45;;;;;;;16.91;80.60;98891.44;5009776;28;20042;-67
2022/09/15 08:54:34;;;;;;;38.20;22.17;;;;;;;16.91;80.44;98890.59;5009063;28;20048;-67
2022/09/15 08:57:03;;;;;;;38.58;23.75;;;;;;;16.90;80.57;98900.38;5008490;28;20140;-67
2022/09/15 08:59:34;;;;;;;26.15;20.10;;;;;;;16.95;80.04;98902.63;5008732;28;20436;-67
2022/09/15 09:02:32;;;;;;;29.50;22.08;;;;;;;16.95;80.33;98905.28;5008681;28;20061;-68
2022/09/15 09:05:05;;;;;;;27.65;21.88;;;;;;;16.92;81.27;98905.59;4983624;28;20493;-67
2022/09/15 09:07:59;;;;;;;33.78;23.20;;;;;;;16.97;79.93;98908.66;5008690;28;20060;-51
2022/09/15 09:10:36;;;;;;;27.45;22.05;;;;;;;16.99;79.99;98913.88;5009008;28;20049;-68
2022/09/15 09:13:15;;;;;;;23.40;18.30;;;;;;;17.07;79.33;98914.00;5008864;28;20060;-72
2022/09/15 09:15:51;;;;;;;25.88;20.20;;;;;;;17.15;79.07;98919.47;5008814;28;20060;-69
2022/09/15 09:18:32;;;;;;;28.75;21.52;;;;;;;17.14;78.36;98913.31;5008405;28;20050;-66
2022/09/15 09:21:05;;;;;;;28.23;18.63;;;;;;;17.31;77.47;98903.78;5009865;28;20536;-67
2022/09/15 09:23:34;;;;;;;26.95;18.10;;;;;;;17.86;75.60;98913.88;5008576;28;20045;-66
2022/09/15 09:26:01;;;;;;;28.63;19.90;;;;;;;17.94;75.47;98908.69;5010509;28;20054;-69
2022/09/15 09:28:30;;;;;;;21.70;16.85;;;;;;;17.97;75.02;98910.22;5008025;28;20157;-69
2022/09/15 09:31:06;;;;;;;23.45;17.42;;;;;;;17.97;74.92;98916.38;5008304;28;20472;-67
2022/09/15 09:33:41;;;;;;;27.42;17.52;;;;;;;17.83;74.59;98911.50;5008235;28;20053;-67
2022/09/15 09:36:10;;;;;;;23.38;16.42;;;;;;;17.88;75.16;98919.91;5007448;28;20050;-67
2022/09/15 09:38:42;;;;;;;20.63;16.65;;;;;;;18.01;73.99;98911.59;5008106;28;20058;-68
2022/09/15 09:41:13;;;;;;;18.63;16.65;;;;;;;18.35;73.71;98919.91;5009009;28;20124;-67
2022/09/15 09:43:42;;;;;;;19.13;14.45;;;;;;;18.94;71.00;98911.63;5011739;28;20119;-68
2022/09/15 09:46:15;;;;;;;16.33;14.13;;;;;;;19.88;67.46;98914.66;5011471;28;20057;-68
2022/09/15 09:48:48;;;;;;;13.15;11.63;;;;;;;19.55;66.48;98904.72;5012098;28;20068;-68
2022/09/15 09:51:31;;;;;;;18.15;13.05;;;;;;;19.21;67.39;98908.06;5011689;28;20104;-68
2022/09/15 09:54:04;;;;;;;21.15;13.27;;;;;;;18.94;68.58;98907.13;5011578;28;20104;-68
2022/09/15 09:56:30;;;;;;;16.45;12.50;;;;;;;18.73;68.77;98907.38;5011990;28;20057;-66
2022/09/15 09:58:57;;;;;;;17.00;9.68;;;;;;;18.58;68.79;98907.03;5012337;28;20057;-67
2022/09/15 10:01:25;;;;;;;15.13;8.77;;;;;;;18.52;67.12;98909.44;5012113;28;20140;-67
2022/09/15 10:04:12;;;;;;;9.30;6.43;;;;;;;18.45;66.91;98912.69;5011899;28;20046;-67
2022/09/15 10:06:39;;;;;;;19.27;9.32;;;;;;;18.35;68.60;98916.41;5011399;28;20109;-67
2022/09/15 10:09:12;;;;;;;12.23;8.18;;;;;;;18.38;69.48;98922.28;5010470;28;20472;-67
2022/09/15 10:11:42;;;;;;;18.08;10.20;;;;;;;18.31;69.54;98918.53;5010711;28;20046;-67
2022/09/15 10:14:18;;;;;;;13.10;10.25;;;;;;;18.29;69.58;98922.34;5010156;28;20137;-68
2022/09/15 10:16:56;;;;;;;16.50;8.45;;;;;;;18.22;67.66;98917.56;5010035;28;20050;-68
2022/09/15 10:19:24;;;;;;;12.15;7.07;;;;;;;18.23;67.43;98913.91;5010691;28;20363;-69
2022/09/15 10:21:50;;;;;;;10.70;7.55;;;;;;;18.35;68.28;98922.56;5011170;28;20128;-69
2022/09/15 10:24:36;;;;;;;20.48;8.43;;;;;;;18.52;67.65;98910.28;5009949;28;20064;-70
2022/09/15 10:27:17;;;;;;;11.38;6.40;;;;;;;18.61;66.76;98912.06;5000991;28;20053;-66
2022/09/15 10:29:44;;;;;;;11.95;6.78;;;;;;;18.82;66.66;98905.66;5011211;28;20050;-66
2022/09/15 10:32:22;;;;;;;11.02;6.18;;;;;;;19.13;65.32;98905.34;5011249;28;20046;-69
2022/09/15 10:34:58;;;;;;;9.52;5.82;;;;;;;19.48;63.54;98899.97;5011024;28;20062;-68
